Flight Track Log - Related Links

Times and Time Zones

All times are in EDT time to prevent confusion due to time zone crossing. See the N306UP flight status page for this flight to view local times or setup timezone preferences in your user account.

Time Position Orientation Groundspeed Altitude Reporting Facility
EDT Latitude Longitude Course Direction KTS MPH feet Rate Location/Type
Wed 12:53:52 PM 19.7390 -156.0430 224° Southwest  Level FlightAware ADS-B
Wed 12:55:37 PM 19.7440 -156.0430 360° North 52 Level FlightAware ADS-B
Wed 12:56:07 PM 19.7460 -156.0420 25° Northeast 75 Level FlightAware ADS-B
Wed 12:57:02 PM 19.7490 -156.0420 360° North 86 Level FlightAware ADS-B
Wed 12:59:00 PM 19.8055 -156.1852 309° West  Level FlightAware Approximate
Wed 12:59:37 PM 19.7390 -156.0460 309° West 152 175 300  Level FlightAware ADS-B
Wed 12:59:52 PM 19.7300 -156.0470 186° South 153 176 1,000 2,640 Climbing FlightAware ADS-B
Wed 01:00:02 PM 19.7240 -156.0520 218° Southwest 166 191 1,400 1,680 Climbing FlightAware ADS-B
Wed 01:00:17 PM 19.7210 -156.0620 252° West 193 222 1,700 2,229 Climbing FlightAware ADS-B
Wed 01:00:37 PM 19.7330 -156.0860 298° West 224 258 2,700 2,900 Climbing FlightAware ADS-B
Wed 01:01:17 PM 19.7610 -156.1120 319° Northwest 247 284 4,600 2,880 Climbing FlightAware ADS-B
Wed 01:01:27 PM 19.7690 -156.1220 310° West 259 298 5,100 3,750 Climbing FlightAware ADS-B
Wed 01:01:57 PM 19.7940 -156.1580 306° West 272 313 7,100 3,600 Climbing FlightAware ADS-B
Wed 01:02:12 PM 19.8040 -156.1700 312° West 278 320 7,800 2,850 Climbing FlightAware ADS-B
Wed 01:02:37 PM 19.8240 -156.1940 312° West 287 330 9,000 2,743 Climbing FlightAware ADS-B
Wed 01:03:22 PM 19.8640 -156.2430 311° West 321 369 11,000 2,640 Climbing FlightAware ADS-B
Wed 01:04:17 PM 19.9260 -156.3160 312° West 369 425 13,400 1,832 Climbing FlightAware ADS-B
Wed 01:04:57 PM 19.9740 -156.3750 311° West 367 422 13,900 316 Climbing FlightAware ADS-B
Wed 01:05:52 PM 20.0320 -156.4460 311° West 367 422 13,900  Level FlightAware ADS-B
Wed 01:06:32 PM 20.0770 -156.4990 312° West 368 423 13,900  Level FlightAware ADS-B
Wed 01:07:17 PM 20.1270 -156.5600 311° West 367 422 13,900  Level FlightAware ADS-B
Wed 01:08:02 PM 20.1840 -156.6280 312° West 368 423 13,900  Level FlightAware ADS-B
Wed 01:08:42 PM 20.2330 -156.6720 320° Northwest 366 421 13,900  Level FlightAware ADS-B
Wed 01:09:22 PM 20.2940 -156.7070 332° Northwest 369 425 13,900  Level FlightAware ADS-B
Wed 01:10:07 PM 20.3610 -156.7470 331° Northwest 369 425 13,900  Level FlightAware ADS-B
Wed 01:10:42 PM 20.4110 -156.7780 330° Northwest 371 427 13,900  Level FlightAware ADS-B
Wed 01:11:32 PM 20.4850 -156.8260 329° Northwest 371 427 13,900  Level FlightAware ADS-B
Wed 01:12:12 PM 20.5240 -156.8830 306° West 372 428 13,900  Level FlightAware ADS-B
Wed 01:13:07 PM 20.5800 -156.9660 306° West 368 423 13,900  Level FlightAware ADS-B
Wed 01:14:32 PM 20.6600 -157.0960 303° West 371 427 13,900  Level FlightAware ADS-B
Wed 01:15:17 PM 20.7060 -157.1680 304° West 369 425 13,900  Level FlightAware ADS-B
Wed 01:15:57 PM 20.7400 -157.2220 304° West 369 425 13,900  Level FlightAware ADS-B
Wed 01:16:32 PM 20.7740 -157.2760 304° West 370 426 13,900  Level FlightAware ADS-B
Wed 01:17:17 PM 20.8140 -157.3400 304° West 366 421 13,900  Level FlightAware ADS-B
Wed 01:18:02 PM 20.8610 -157.4160 304° West 370 426 13,900 -209 Level FlightAware ADS-B
Wed 01:19:12 PM 20.9220 -157.5200 302° West 370 426 13,500 -1,271 Descending FlightAware ADS-B
Wed 01:19:27 PM 20.9220 -157.5530 270° West 364 419 12,100 -2,945 Descending FlightAware ADS-B
Wed 01:20:07 PM 20.9420 -157.6200 288° West 357 411 10,800 -1,341 Descending FlightAware ADS-B
Wed 01:20:52 PM 20.9630 -157.6930 287° West 325 374 10,200 -675 Descending FlightAware ADS-B
Wed 01:21:27 PM 20.9770 -157.7420 287° West 319 367 9,900 -1,200 Descending FlightAware ADS-B
Wed 01:21:47 PM 20.9850 -157.7700 287° West 289 333 9,100 -2,400 Descending FlightAware ADS-B
Wed 01:22:17 PM 20.9970 -157.8120 287° West 290 334 7,900 -2,314 Descending FlightAware ADS-B
Wed 01:22:57 PM 21.0110 -157.8640 286° West 281 323 6,400 -1,886 Descending FlightAware ADS-B
Wed 01:23:27 PM 21.0230 -157.9070 287° West 252 290 5,700 -1,320 Descending FlightAware ADS-B
Wed 01:23:47 PM 21.0310 -157.9330 288° West 247 284 5,300 -700 Descending FlightAware ADS-B
Wed 01:24:27 PM 21.0420 -157.9750 286° West 247 284 5,000 -1,010 Descending FlightAware ADS-B
Wed 01:25:28 PM 21.0833 -158.0167 286° West 250 288 3,600 -992 Descending Honolulu Center
Wed 01:26:28 PM 21.1333 -158.0667 317° Northwest 220 253 3,000 -550 Descending Honolulu Center
Wed 01:27:28 PM 21.1833 -158.0667 360° North 190 219 2,500 -500 Descending Honolulu Center

Login

Don't have an account? Register now (free) for customized features, flight alerts, and more!